createdAt,value
2023-09-27T00:01:13.662Z,65.74
2023-09-27T00:03:40.378Z,65.97
2023-09-27T00:06:08.511Z,66.10
2023-09-27T00:08:35.542Z,65.90
2023-09-27T00:11:03.834Z,65.77
2023-09-27T00:13:30.568Z,65.99
2023-09-27T00:15:57.229Z,66.04
2023-09-27T00:18:24.302Z,65.79
2023-09-27T00:20:52.327Z,65.91
2023-09-27T00:23:20.377Z,58.74
2023-09-27T00:25:47.028Z,67.77
2023-09-27T00:28:13.632Z,71.90
2023-09-27T00:30:40.297Z,67.54
2023-09-27T00:33:07.120Z,66.71
2023-09-27T00:35:33.811Z,65.98
2023-09-27T00:38:00.480Z,66.23
2023-09-27T00:40:29.202Z,66.40
2023-09-27T00:42:56.084Z,65.83
2023-09-27T00:45:22.731Z,60.96
2023-09-27T00:47:51.954Z,67.37
2023-09-27T00:50:19.116Z,66.47
2023-09-27T00:52:47.917Z,66.09
2023-09-27T00:55:17.828Z,66.06
2023-09-27T00:57:46.311Z,66.30
2023-09-27T01:00:16.190Z,66.56
2023-09-27T01:02:43.123Z,66.27
2023-09-27T01:05:10.661Z,66.26
2023-09-27T01:07:39.739Z,65.85
2023-09-27T01:10:08.915Z,66.04
2023-09-27T01:12:36.210Z,65.79
2023-09-27T01:15:05.111Z,65.57
2023-09-27T01:17:31.886Z,65.81
2023-09-27T01:19:58.645Z,66.00
2023-09-27T01:22:25.397Z,65.57
2023-09-27T01:24:55.741Z,65.62
2023-09-27T01:27:23.491Z,65.68
2023-09-27T01:29:50.268Z,65.65
2023-09-27T01:32:18.608Z,65.65
2023-09-27T01:34:45.685Z,65.65
2023-09-27T01:37:12.669Z,62.38
2023-09-27T01:39:39.334Z,65.74
2023-09-27T01:42:07.400Z,65.67
2023-09-27T01:44:34.018Z,66.02
2023-09-27T01:47:00.654Z,66.12
2023-09-27T01:49:27.411Z,65.67
2023-09-27T01:51:54.197Z,65.84
2023-09-27T01:54:20.851Z,65.66
2023-09-27T01:56:47.480Z,66.21
2023-09-27T01:59:15.540Z,65.75
2023-09-27T02:01:42.240Z,65.66
2023-09-27T02:04:08.990Z,66.04
2023-09-27T02:06:35.701Z,67.24
2023-09-27T02:09:02.382Z,66.16
2023-09-27T02:11:29.130Z,69.33
2023-09-27T02:13:55.889Z,66.44
2023-09-27T02:16:23.970Z,65.65
2023-09-27T02:18:50.789Z,65.76
2023-09-27T02:21:17.618Z,65.92
2023-09-27T02:23:44.319Z,65.79
2023-09-27T02:26:11.305Z,66.08
2023-09-27T02:28:37.956Z,65.99
2023-09-27T02:31:09.784Z,65.96
2023-09-27T02:33:38.443Z,65.98
2023-09-27T02:36:05.601Z,66.11
2023-09-27T02:38:32.370Z,65.73
2023-09-27T02:40:59.092Z,65.42
2023-09-27T02:43:25.803Z,65.67
2023-09-27T02:45:53.477Z,66.17
2023-09-27T02:48:20.258Z,65.84
2023-09-27T02:50:49.845Z,60.42
2023-09-27T02:53:16.631Z,69.08
2023-09-27T02:55:43.634Z,64.49
2023-09-27T02:58:10.281Z,66.23
2023-09-27T03:00:37.711Z,66.41
2023-09-27T03:03:04.779Z,66.41
2023-09-27T03:05:36.452Z,59.91
2023-09-27T03:08:05.354Z,66.16
2023-09-27T03:10:32.588Z,66.41
2023-09-27T03:13:00.090Z,66.08
2023-09-27T03:15:27.046Z,65.64
2023-09-27T03:17:53.760Z,66.09
2023-09-27T03:20:23.684Z,65.96
2023-09-27T03:22:50.627Z,65.92
2023-09-27T03:25:19.508Z,66.22
2023-09-27T03:27:47.014Z,66.12
2023-09-27T03:30:13.916Z,65.91
2023-09-27T03:32:40.593Z,58.60
2023-09-27T03:35:08.674Z,68.82
2023-09-27T03:37:38.206Z,66.41
2023-09-27T03:40:05.303Z,70.97
2023-09-27T03:42:33.858Z,67.65
2023-09-27T03:45:00.492Z,66.75
2023-09-27T03:47:27.543Z,67.00
2023-09-27T03:49:54.286Z,66.24
2023-09-27T03:52:21.038Z,66.34
2023-09-27T03:54:47.671Z,65.36
2023-09-27T03:57:14.282Z,65.42
2023-09-27T03:59:42.236Z,65.76
2023-09-27T04:02:08.960Z,67.75
2023-09-27T04:04:35.960Z,67.19
2023-09-27T04:07:02.744Z,66.54
2023-09-27T04:09:30.024Z,66.63
2023-09-27T04:11:56.851Z,66.23
2023-09-27T04:14:23.770Z,66.41
2023-09-27T04:16:51.812Z,66.58
2023-09-27T04:19:19.062Z,66.75
2023-09-27T04:21:46.374Z,65.93
2023-09-27T04:24:13.077Z,66.44
2023-09-27T04:26:39.728Z,66.93
2023-09-27T04:29:08.427Z,66.92
2023-09-27T04:31:36.026Z,66.69
2023-09-27T04:34:04.240Z,66.69
2023-09-27T04:36:30.847Z,66.79
2023-09-27T04:38:57.480Z,66.39
2023-09-27T04:41:24.131Z,66.16
2023-09-27T04:43:50.943Z,66.25
2023-09-27T04:46:19.284Z,66.19
2023-09-27T04:48:46.515Z,66.07
2023-09-27T04:51:14.592Z,62.20
2023-09-27T04:53:41.470Z,67.01
2023-09-27T04:56:08.821Z,66.70
2023-09-27T04:58:37.712Z,66.13
2023-09-27T05:01:07.155Z,66.26
2023-09-27T05:03:34.392Z,66.44
2023-09-27T05:06:01.545Z,65.85
2023-09-27T05:08:29.610Z,66.00
2023-09-27T05:10:57.447Z,66.25
2023-09-27T05:13:24.360Z,66.31
2023-09-27T05:15:51.328Z,66.76
2023-09-27T05:18:18.055Z,67.16
2023-09-27T05:20:45.241Z,67.03
2023-09-27T05:23:12.015Z,66.46
2023-09-27T05:25:40.095Z,66.22
2023-09-27T05:28:06.757Z,66.41
2023-09-27T05:30:33.488Z,66.06
2023-09-27T05:33:00.278Z,66.19
2023-09-27T05:35:27.187Z,66.20
2023-09-27T05:37:53.954Z,66.67
2023-09-27T05:40:20.698Z,65.94
2023-09-27T05:42:48.705Z,66.25
2023-09-27T05:45:15.498Z,66.22
2023-09-27T05:47:42.620Z,66.11
2023-09-27T05:50:12.397Z,67.15
2023-09-27T05:52:40.284Z,66.17
2023-09-27T05:55:08.205Z,64.66
2023-09-27T05:57:34.953Z,69.44
2023-09-27T06:00:14.167Z,70.76
2023-09-27T06:02:41.225Z,67.58
2023-09-27T06:05:09.082Z,66.64
2023-09-27T06:07:35.816Z,65.61
2023-09-27T06:10:02.542Z,65.81
2023-09-27T06:12:29.404Z,65.83
2023-09-27T06:14:56.040Z,66.24
2023-09-27T06:17:24.550Z,65.45
2023-09-27T06:19:51.277Z,65.42
2023-09-27T06:22:18.060Z,66.05
2023-09-27T06:24:46.963Z,66.04
2023-09-27T06:27:13.642Z,66.44
2023-09-27T06:29:41.453Z,66.91
2023-09-27T06:32:08.582Z,66.18
2023-09-27T06:34:36.685Z,72.09
2023-09-27T06:37:03.309Z,69.11
2023-09-27T06:39:29.982Z,67.23
2023-09-27T06:41:56.838Z,66.82
2023-09-27T06:44:23.505Z,66.75
2023-09-27T06:46:50.983Z,67.24
2023-09-27T06:49:18.062Z,66.57
2023-09-27T06:51:46.282Z,66.69
2023-09-27T06:54:12.925Z,68.38
2023-09-27T06:56:40.261Z,67.41
2023-09-27T06:59:07.052Z,66.77
2023-09-27T07:01:33.815Z,71.69
2023-09-27T07:04:04.635Z,71.19
2023-09-27T07:06:31.389Z,73.30
2023-09-27T07:08:59.520Z,73.93
2023-09-27T07:11:26.446Z,75.64
2023-09-27T07:13:53.310Z,72.42
2023-09-27T07:16:21.757Z,67.35
2023-09-27T07:18:51.731Z,68.52
2023-09-27T07:21:21.076Z,67.03
2023-09-27T07:23:48.728Z,66.57
2023-09-27T07:26:17.421Z,62.25
2023-09-27T07:28:45.093Z,67.73
2023-09-27T07:31:12.567Z,74.72
2023-09-27T07:33:39.276Z,66.50
2023-09-27T07:36:09.755Z,71.53
2023-09-27T07:38:38.382Z,66.30
2023-09-27T07:41:05.670Z,63.64
2023-09-27T07:43:33.773Z,62.02
2023-09-27T07:46:01.982Z,63.04
2023-09-27T07:48:30.434Z,62.50
2023-09-27T07:50:57.049Z,65.13
2023-09-27T07:53:23.691Z,70.16
2023-09-27T07:55:52.400Z,68.37
2023-09-27T07:58:19.734Z,71.56
2023-09-27T08:00:47.686Z,77.39
2023-09-27T08:03:15.609Z,70.94
2023-09-27T08:05:46.326Z,73.72
2023-09-27T08:08:14.857Z,74.60
2023-09-27T08:10:44.819Z,66.32
2023-09-27T08:13:13.077Z,64.36
2023-09-27T08:15:40.658Z,63.69
2023-09-27T08:18:09.202Z,59.79
2023-09-27T08:20:36.284Z,59.44
2023-09-27T08:23:03.673Z,61.43
2023-09-27T08:25:30.399Z,59.44
2023-09-27T08:27:57.605Z,57.93
2023-09-27T08:30:24.609Z,57.67
2023-09-27T08:32:52.632Z,57.25
2023-09-27T08:35:20.957Z,54.71
2023-09-27T08:37:48.689Z,57.75
2023-09-27T08:40:16.372Z,57.30
2023-09-27T08:42:44.152Z,55.75
2023-09-27T08:45:13.289Z,56.15
2023-09-27T08:47:42.282Z,61.16
2023-09-27T08:50:15.848Z,66.32
2023-09-27T08:52:49.693Z,69.92
2023-09-27T08:55:17.970Z,65.91
2023-09-27T08:57:47.137Z,69.77
2023-09-27T09:00:21.173Z,69.92
2023-09-27T09:02:50.591Z,66.37
2023-09-27T09:05:17.425Z,69.28
2023-09-27T09:07:46.584Z,66.50
2023-09-27T09:10:14.724Z,64.47
2023-09-27T09:12:42.776Z,62.05
2023-09-27T09:15:15.678Z,66.13
2023-09-27T09:17:49.326Z,64.04
2023-09-27T09:20:24.713Z,59.72
2023-09-27T09:22:55.870Z,61.98
2023-09-27T09:25:23.800Z,57.23
2023-09-27T09:28:04.196Z,52.65
2023-09-27T09:30:37.508Z,52.06
2023-09-27T09:33:09.921Z,53.98
2023-09-27T09:35:37.746Z,58.03
2023-09-27T09:38:05.825Z,61.00
2023-09-27T09:40:33.067Z,54.20
2023-09-27T09:43:01.094Z,57.87
2023-09-27T09:45:29.963Z,62.87
2023-09-27T09:47:57.655Z,62.39
2023-09-27T09:50:24.766Z,63.72
2023-09-27T09:52:58.362Z,62.17
2023-09-27T09:55:45.665Z,62.78
2023-09-27T09:58:30.647Z,61.20
2023-09-27T10:01:02.207Z,61.71
2023-09-27T10:03:32.286Z,61.20
2023-09-27T10:06:02.633Z,60.24
2023-09-27T10:08:33.781Z,61.18
2023-09-27T10:11:04.925Z,66.03
2023-09-27T10:13:34.969Z,60.82
2023-09-27T10:16:02.547Z,65.10
2023-09-27T10:18:31.069Z,55.87
2023-09-27T10:21:09.217Z,61.10
2023-09-27T10:23:58.314Z,62.24
2023-09-27T10:26:38.147Z,59.20
2023-09-27T10:29:16.354Z,57.96
2023-09-27T10:32:22.949Z,55.66
2023-09-27T10:34:50.604Z,59.42
2023-09-27T10:37:19.716Z,60.85
2023-09-27T10:40:05.949Z,62.66
2023-09-27T10:42:44.059Z,61.38
2023-09-27T10:45:11.055Z,55.40
2023-09-27T10:47:37.871Z,57.98
2023-09-27T10:50:05.645Z,59.93
2023-09-27T10:52:32.410Z,54.07
2023-09-27T10:55:09.609Z,57.17
2023-09-27T10:57:36.428Z,57.31
2023-09-27T11:00:10.866Z,56.41
2023-09-27T11:02:38.024Z,58.28
2023-09-27T11:05:05.911Z,58.99
2023-09-27T11:07:47.180Z,57.46
2023-09-27T11:10:32.093Z,55.15
2023-09-27T11:13:10.956Z,59.46
2023-09-27T11:15:39.641Z,58.90
2023-09-27T11:18:08.608Z,59.39
2023-09-27T11:20:35.914Z,58.94
2023-09-27T11:23:03.423Z,56.60
2023-09-27T11:25:31.271Z,55.69
2023-09-27T11:27:58.191Z,56.20
2023-09-27T11:30:31.315Z,55.53
2023-09-27T11:33:00.670Z,60.49
2023-09-27T11:35:27.627Z,59.91
2023-09-27T11:38:09.076Z,62.38
2023-09-27T11:40:37.195Z,66.11
2023-09-27T11:43:04.276Z,59.54
2023-09-27T11:45:42.748Z,59.21
2023-09-27T11:48:11.060Z,57.69
2023-09-27T11:50:38.647Z,59.86
2023-09-27T11:53:05.782Z,58.99
2023-09-27T11:55:32.561Z,59.31
2023-09-27T11:58:00.197Z,59.27
2023-09-27T12:00:27.280Z,59.34
2023-09-27T12:02:58.025Z,61.39
2023-09-27T12:05:27.565Z,61.36
2023-09-27T12:07:54.693Z,61.66
2023-09-27T12:10:21.635Z,60.47
2023-09-27T12:12:49.665Z,61.04
2023-09-27T12:15:16.498Z,64.53
2023-09-27T12:17:43.940Z,65.34
2023-09-27T12:20:22.447Z,68.08
2023-09-27T12:22:55.545Z,63.94
2023-09-27T12:25:22.181Z,60.89
2023-09-27T12:27:48.827Z,61.61
2023-09-27T12:30:15.609Z,62.63
2023-09-27T12:32:42.383Z,65.30
2023-09-27T12:35:09.343Z,64.90
2023-09-27T12:37:36.655Z,61.46
2023-09-27T12:40:05.688Z,62.16
2023-09-27T12:42:32.516Z,65.02
2023-09-27T12:44:59.373Z,62.44
2023-09-27T12:47:26.798Z,62.73
2023-09-27T12:49:53.610Z,62.43
2023-09-27T12:52:20.340Z,61.30
2023-09-27T12:54:48.524Z,60.28
2023-09-27T12:57:16.522Z,62.13
2023-09-27T12:59:43.186Z,62.85
2023-09-27T13:02:09.826Z,60.52
2023-09-27T13:04:36.579Z,60.95
2023-09-27T13:07:04.230Z,61.31
2023-09-27T13:09:30.942Z,61.07
2023-09-27T13:11:57.740Z,62.57
2023-09-27T13:14:25.738Z,64.44
2023-09-27T13:16:52.560Z,65.11
2023-09-27T13:19:19.266Z,65.01
2023-09-27T13:21:47.217Z,64.70
2023-09-27T13:24:14.084Z,64.70
2023-09-27T13:26:40.981Z,65.37
2023-09-27T13:29:08.047Z,64.57
2023-09-27T13:31:36.090Z,65.47
2023-09-27T13:34:10.044Z,66.03
2023-09-27T13:36:40.373Z,66.16
2023-09-27T13:39:07.459Z,66.27
2023-09-27T13:41:41.846Z,66.24
2023-09-27T13:44:09.140Z,66.70
2023-09-27T13:46:37.255Z,66.73
2023-09-27T13:49:04.431Z,67.23
2023-09-27T13:51:35.865Z,66.67
2023-09-27T13:54:02.600Z,66.74
2023-09-27T13:56:29.787Z,66.91
2023-09-27T13:58:56.433Z,67.05
2023-09-27T14:01:23.167Z,66.86
2023-09-27T14:03:51.217Z,67.05
2023-09-27T14:06:18.082Z,66.81
2023-09-27T14:08:44.848Z,66.91
2023-09-27T14:11:13.202Z,67.42
2023-09-27T14:13:40.007Z,67.33
2023-09-27T14:16:08.453Z,67.57
2023-09-27T14:18:35.259Z,71.37
2023-09-27T14:21:04.324Z,65.55
2023-09-27T14:23:31.043Z,67.58
2023-09-27T14:25:57.721Z,65.59
2023-09-27T14:28:25.380Z,67.57
2023-09-27T14:30:52.068Z,65.39
2023-09-27T14:33:19.216Z,66.02
2023-09-27T14:38:18.213Z,64.25
2023-09-27T14:40:44.801Z,65.29
2023-09-27T14:43:11.484Z,65.67
2023-09-27T14:45:38.561Z,66.04
2023-09-27T14:48:05.841Z,65.10
2023-09-27T14:50:32.675Z,66.36
2023-09-27T14:52:59.720Z,66.16
2023-09-27T14:55:28.108Z,64.86
2023-09-27T14:57:54.898Z,65.95
2023-09-27T15:00:23.715Z,68.83
2023-09-27T15:02:50.757Z,69.33
2023-09-27T15:05:17.544Z,70.81
2023-09-27T15:07:44.278Z,70.66
2023-09-27T15:10:11.255Z,70.46
2023-09-27T15:12:39.497Z,70.96
2023-09-27T15:15:07.148Z,71.03
2023-09-27T15:17:38.783Z,71.28
2023-09-27T15:20:06.865Z,71.31
2023-09-27T15:22:34.019Z,71.24
2023-09-27T15:25:00.762Z,71.02
2023-09-27T15:27:27.423Z,71.36
2023-09-27T15:29:55.529Z,71.60
2023-09-27T15:32:22.257Z,71.48
2023-09-27T15:34:49.033Z,71.84
2023-09-27T15:37:16.212Z,71.84
2023-09-27T15:39:43.060Z,71.75
2023-09-27T15:42:10.570Z,71.58
2023-09-27T15:44:41.396Z,71.82
2023-09-27T15:47:12.518Z,71.65
2023-09-27T15:49:39.182Z,71.65
2023-09-27T15:52:05.866Z,71.63
2023-09-27T15:54:32.469Z,71.69
2023-09-27T15:56:59.128Z,71.60
2023-09-27T15:59:25.796Z,71.33
2023-09-27T16:01:53.055Z,71.23
2023-09-27T16:04:21.563Z,71.61
2023-09-27T16:06:48.207Z,71.54
2023-09-27T16:09:16.525Z,71.24
2023-09-27T16:11:44.201Z,71.61
2023-09-27T16:14:11.343Z,71.37
2023-09-27T16:16:38.089Z,71.44
2023-09-27T16:19:05.073Z,71.22
2023-09-27T16:21:33.136Z,71.48
2023-09-27T16:24:01.496Z,71.26
2023-09-27T16:26:28.491Z,71.17
2023-09-27T16:28:55.205Z,71.12
2023-09-27T16:31:22.603Z,71.29
2023-09-27T16:33:49.533Z,71.16
2023-09-27T16:36:17.784Z,71.11
2023-09-27T16:38:45.818Z,70.97
2023-09-27T16:41:12.473Z,71.17
2023-09-27T16:43:40.979Z,70.89
2023-09-27T16:46:10.473Z,70.95
2023-09-27T16:48:37.594Z,71.00
2023-09-27T16:51:04.206Z,71.11
2023-09-27T16:53:30.831Z,70.85
2023-09-27T16:55:58.831Z,70.86
2023-09-27T16:58:28.290Z,70.88
2023-09-27T17:00:56.615Z,70.87
2023-09-27T17:03:23.388Z,70.90
2023-09-27T17:05:50.192Z,70.86
2023-09-27T17:08:19.739Z,70.61
2023-09-27T17:10:46.924Z,70.56
2023-09-27T17:13:14.960Z,70.40
2023-09-27T17:15:42.741Z,70.37
2023-09-27T17:18:09.387Z,70.45
2023-09-27T17:20:36.041Z,70.40
2023-09-27T17:23:04.244Z,70.19
2023-09-27T17:25:30.971Z,70.32
2023-09-27T17:27:57.640Z,70.35
2023-09-27T17:30:25.752Z,70.32
2023-09-27T17:32:52.430Z,70.25
2023-09-27T17:35:19.207Z,70.31
2023-09-27T17:37:46.038Z,70.34
2023-09-27T17:40:13.217Z,70.17
2023-09-27T17:42:39.924Z,70.11
2023-09-27T17:45:09.223Z,70.13
2023-09-27T17:47:37.380Z,69.76
2023-09-27T17:50:04.949Z,69.95
2023-09-27T17:52:31.746Z,69.79
2023-09-27T17:54:58.477Z,69.87
2023-09-27T17:57:25.098Z,69.88
2023-09-27T17:59:51.714Z,69.57
2023-09-27T18:02:18.542Z,69.65
2023-09-27T18:04:46.905Z,69.69
2023-09-27T18:07:13.775Z,69.64
2023-09-27T18:09:40.513Z,69.75
2023-09-27T18:12:07.661Z,69.42
2023-09-27T18:14:34.279Z,69.46
2023-09-27T18:17:01.046Z,69.36
2023-09-27T18:19:27.808Z,69.07
2023-09-27T18:21:55.819Z,69.13
2023-09-27T18:24:22.726Z,69.27
2023-09-27T18:26:49.389Z,69.34
2023-09-27T18:29:16.153Z,69.09
2023-09-27T18:31:45.596Z,69.02
2023-09-27T18:34:12.943Z,69.16
2023-09-27T18:36:39.632Z,69.16
2023-09-27T18:39:07.649Z,69.19
2023-09-27T18:41:34.281Z,68.90
2023-09-27T18:44:01.078Z,68.93
2023-09-27T18:46:27.838Z,68.88
2023-09-27T18:48:54.718Z,68.75
2023-09-27T18:51:22.268Z,68.89
2023-09-27T18:53:49.488Z,68.80
2023-09-27T18:56:18.518Z,68.67
2023-09-27T18:58:45.325Z,68.95
2023-09-27T19:01:12.530Z,68.46
2023-09-27T19:03:39.274Z,68.59
2023-09-27T19:06:06.240Z,68.37
2023-09-27T19:08:32.958Z,64.45
2023-09-27T19:10:59.672Z,69.75
2023-09-27T19:13:27.826Z,68.70
2023-09-27T19:15:57.006Z,68.46
2023-09-27T19:18:23.677Z,68.46
2023-09-27T19:20:50.448Z,68.40
2023-09-27T19:23:17.070Z,68.48
2023-09-27T19:25:43.725Z,68.29
2023-09-27T19:28:10.484Z,68.35
2023-09-27T19:30:40.701Z,68.06
2023-09-27T19:33:08.575Z,68.33
2023-09-27T19:35:35.343Z,68.23
2023-09-27T19:38:02.019Z,68.15
2023-09-27T19:40:28.651Z,68.06
2023-09-27T19:42:55.312Z,68.13
2023-09-27T19:45:22.464Z,68.18
2023-09-27T19:47:50.501Z,68.22
2023-09-27T19:50:17.377Z,68.24
2023-09-27T19:52:45.603Z,68.08
2023-09-27T19:55:12.951Z,67.86
2023-09-27T19:57:39.584Z,68.22
2023-09-27T20:00:09.228Z,68.13
2023-09-27T20:02:35.962Z,67.72
2023-09-27T20:05:04.395Z,67.92
2023-09-27T20:07:31.470Z,67.90
2023-09-27T20:09:58.111Z,67.57
2023-09-27T20:12:24.839Z,67.71
2023-09-27T20:14:51.563Z,67.57
2023-09-27T20:17:18.517Z,67.47
2023-09-27T20:19:45.175Z,67.71
2023-09-27T20:22:13.336Z,67.82
2023-09-27T20:24:40.318Z,67.95
2023-09-27T20:27:06.948Z,67.60
2023-09-27T20:29:33.691Z,67.48
2023-09-27T20:32:00.513Z,65.27
2023-09-27T20:34:27.242Z,67.56
2023-09-27T20:36:53.874Z,67.66
2023-09-27T20:39:21.911Z,67.50
2023-09-27T20:41:48.557Z,67.49
2023-09-27T20:44:15.320Z,67.23
2023-09-27T20:46:42.104Z,67.70
2023-09-27T20:49:08.789Z,67.62
2023-09-27T20:51:35.398Z,67.57
2023-09-27T20:54:02.352Z,67.82
2023-09-27T20:56:30.552Z,67.71
2023-09-27T20:58:57.210Z,67.50
2023-09-27T21:01:28.975Z,67.43
2023-09-27T21:03:55.973Z,67.30
2023-09-27T21:06:28.658Z,67.23
2023-09-27T21:08:56.667Z,66.17
2023-09-27T21:11:24.730Z,71.80
2023-09-27T21:13:58.303Z,70.58
2023-09-27T21:16:26.287Z,68.33
2023-09-27T21:18:54.303Z,67.92
2023-09-27T21:21:21.766Z,67.48
2023-09-27T21:23:48.434Z,67.25
2023-09-27T21:26:15.159Z,67.29
2023-09-27T21:28:41.986Z,67.48
2023-09-27T21:31:11.701Z,67.50
2023-09-27T21:33:38.518Z,67.29
2023-09-27T21:36:05.620Z,67.40
2023-09-27T21:38:32.279Z,67.28
2023-09-27T21:40:59.105Z,67.33
2023-09-27T21:43:25.907Z,67.35
2023-09-27T21:45:53.017Z,67.29
2023-09-27T21:48:25.082Z,67.23
2023-09-27T21:50:52.137Z,66.91
2023-09-27T21:53:18.790Z,67.19
2023-09-27T21:55:45.426Z,62.48
2023-09-27T21:58:12.078Z,66.49
2023-09-27T22:00:38.782Z,69.85
2023-09-27T22:03:05.903Z,68.78
2023-09-27T22:05:34.422Z,67.72
2023-09-27T22:08:01.570Z,67.21
2023-09-27T22:10:35.349Z,67.23
2023-09-27T22:13:22.322Z,67.19
2023-09-27T22:15:54.316Z,69.70
2023-09-27T22:18:21.960Z,67.69
2023-09-27T22:20:50.523Z,67.31
2023-09-27T22:23:32.363Z,67.50
2023-09-27T22:26:00.325Z,67.35
2023-09-27T22:28:30.026Z,70.30
2023-09-27T22:30:56.880Z,70.03
2023-09-27T22:33:30.532Z,67.76
2023-09-27T22:35:58.674Z,67.29
2023-09-27T22:38:25.299Z,67.07
2023-09-27T22:40:52.291Z,67.01
2023-09-27T22:43:19.102Z,67.08
2023-09-27T22:45:49.177Z,66.83
2023-09-27T22:48:16.983Z,66.50
2023-09-27T22:50:49.499Z,60.78
2023-09-27T22:53:19.138Z,67.48
2023-09-27T22:56:00.084Z,67.02
2023-09-27T22:58:28.740Z,66.98
2023-09-27T23:00:58.528Z,67.17
2023-09-27T23:03:27.865Z,66.78
2023-09-27T23:05:57.110Z,67.32
2023-09-27T23:08:28.451Z,69.27
2023-09-27T23:10:56.339Z,68.89
2023-09-27T23:13:29.299Z,67.54
2023-09-27T23:15:56.365Z,61.39
2023-09-27T23:18:30.962Z,67.60
2023-09-27T23:20:58.949Z,70.94
2023-09-27T23:23:27.117Z,67.86
2023-09-27T23:25:55.274Z,67.13
2023-09-27T23:28:31.152Z,66.73
2023-09-27T23:31:09.115Z,66.66
2023-09-27T23:33:42.679Z,68.76
2023-09-27T23:36:23.833Z,74.11
2023-09-27T23:38:58.277Z,68.27
2023-09-27T23:41:32.042Z,67.40
2023-09-27T23:44:05.917Z,67.12
2023-09-27T23:46:38.335Z,66.81
2023-09-27T23:49:05.578Z,66.63
2023-09-27T23:51:33.192Z,66.67
2023-09-27T23:54:03.682Z,66.65
2023-09-27T23:56:35.690Z,67.01
2023-09-27T23:59:21.052Z,67.09
